Colina, Chile
Current Conditions -  °F | °C
As of 10:00 PM on Sunday 21 Dec 2014 (Local Time) from SCEL Reporting Station
Clear Clear  
Wind Chill: 61°   Ceiling: Unl
Heat Index: 61°   Visibility: 6mi
Dew Point: 39°   Wind: 12mph
Humidity: 45%   Direction: 200°SSW
Pressure: 30.15"   Gusts: NA
Location:  33.2°S, 70.68°W
Report Text: SCEL 220200Z 20010KT CAVOK 16/04 Q1021 NOSIG
Loading
Personal Weather Stations






























Interactive Weather Map New forecast layout! Learn more

10-Day Weather Forecast

Advertisements
Track Severe Weather on mobile